Time;durP1;ratioP1;P1;durP2;ratioP2;P2;SDS_P1;SDS_P2;PMS_P1;PMS_P2;Temp;Humidity;BMP_temperature;BMP_pressure;BME280_temperature;BME280_humidity;BME280_pressure;Samples;Min_cycle;Max_cycle;Signal;HPM_P1;HPM_P2
2022/09/13 00:01:33;;;;;;;2.90;1.88;;;;;;;25.31;52.08;100878.34;5076569;28;20044;-72
2022/09/13 00:04:00;;;;;;;2.88;2.17;;;;;;;25.31;51.54;100881.88;5075119;28;20048;-72
2022/09/13 00:06:28;;;;;;;3.15;2.30;;;;;;;25.31;51.63;100886.47;5075655;28;20059;-72
2022/09/13 00:08:55;;;;;;;3.20;2.20;;;;;;;25.31;51.70;100879.16;5076428;28;20044;-72
2022/09/13 00:11:27;;;;;;;4.90;2.20;;;;;;;25.31;51.55;100881.03;5076321;28;20052;-72
2022/09/13 00:13:56;;;;;;;2.60;2.20;;;;;;;25.30;51.80;100885.63;5076284;28;20048;-72
2022/09/13 00:16:26;;;;;;;3.45;2.05;;;;;;;25.31;51.64;100883.75;5075858;28;20510;-72
2022/09/13 00:18:54;;;;;;;2.63;2.20;;;;;;;25.32;51.74;100882.72;5075991;28;20051;-72
2022/09/13 00:21:23;;;;;;;3.03;2.33;;;;;;;25.31;51.57;100878.34;5076411;28;20049;-72
2022/09/13 00:23:52;;;;;;;3.42;2.05;;;;;;;25.31;51.66;100878.34;5075764;28;20045;-72
2022/09/13 00:26:25;;;;;;;2.85;2.05;;;;;;;25.30;51.70;100872.06;5076102;28;20051;-72
2022/09/13 00:28:55;;;;;;;3.38;2.08;;;;;;;25.30;51.58;100877.50;5075702;28;20051;-72
2022/09/13 00:31:26;;;;;;;2.97;2.40;;;;;;;25.31;51.44;100875.63;5075929;28;20392;-71
2022/09/13 00:33:54;;;;;;;2.88;1.90;;;;;;;25.30;51.45;100874.78;5075341;28;20048;-71
2022/09/13 00:36:21;;;;;;;3.67;2.53;;;;;;;25.31;51.54;100875.63;5076238;28;20503;-71
2022/09/13 00:38:48;;;;;;;2.95;2.25;;;;;;;25.30;51.32;100882.06;5075644;28;20045;-71
2022/09/13 00:41:18;;;;;;;2.85;2.20;;;;;;;25.31;51.38;100878.34;5075664;28;20044;-72
2022/09/13 00:43:50;;;;;;;4.20;2.40;;;;;;;25.30;51.43;100879.34;5075782;28;20050;-72
2022/09/13 00:46:41;;;;;;;3.42;2.05;;;;;;;25.31;51.58;100876.47;5075589;28;20064;-72
2022/09/13 00:49:18;;;;;;;3.10;2.05;;;;;;;25.30;51.43;100882.06;5075457;28;20051;-71
2022/09/13 00:51:55;;;;;;;2.83;2.17;;;;;;;25.29;51.60;100872.25;5074831;28;20040;-72
2022/09/13 00:54:28;;;;;;;3.00;2.22;;;;;;;25.30;51.45;100873.94;5093744;28;20048;-72
2022/09/13 00:56:59;;;;;;;2.97;2.50;;;;;;;25.30;51.41;100871.22;5095857;28;20377;-72
2022/09/13 00:59:32;;;;;;;3.15;2.10;;;;;;;25.29;51.36;100867.69;5095415;28;20052;-71
2022/09/13 01:02:00;;;;;;;3.67;2.40;;;;;;;25.30;51.55;100863.09;5095602;28;20052;-71
2022/09/13 01:04:32;;;;;;;2.88;2.10;;;;;;;25.29;51.24;100877.66;5095649;28;20040;-72
2022/09/13 01:07:05;;;;;;;3.38;2.47;;;;;;;25.29;51.51;100869.53;5095366;28;20051;-72
2022/09/13 01:09:36;;;;;;;4.55;2.42;;;;;;;25.29;51.48;100864.13;5095297;28;20051;-72
2022/09/13 01:12:17;;;;;;;2.28;1.95;;;;;;;25.29;51.25;100866.84;5095344;28;20051;-72
2022/09/13 01:14:46;;;;;;;3.05;2.05;;;;;;;25.29;51.49;100858.69;5095443;28;20052;-72
2022/09/13 01:17:13;;;;;;;2.90;2.00;;;;;;;25.29;51.30;100861.41;5095209;28;20044;-71
2022/09/13 01:19:41;;;;;;;3.22;2.20;;;;;;;25.29;51.42;100859.53;5095000;28;20040;-72
2022/09/13 01:22:39;;;;;;;5.80;2.30;;;;;;;25.28;51.39;100859.69;5095280;28;20044;-72
2022/09/13 01:25:15;;;;;;;2.85;2.10;;;;;;;25.28;51.37;100849.72;5094870;28;20055;-72
2022/09/13 01:27:45;;;;;;;2.58;2.13;;;;;;;25.29;51.58;100856.00;5095077;28;20048;-72
2022/09/13 01:30:15;;;;;;;3.00;2.00;;;;;;;25.28;51.31;100854.28;5094740;28;20044;-72
2022/09/13 01:33:01;;;;;;;2.83;2.10;;;;;;;25.29;51.33;100850.56;5093543;28;20052;-72
2022/09/13 01:35:45;;;;;;;2.42;2.08;;;;;;;25.28;51.42;100848.84;5094684;28;20055;-72
2022/09/13 01:38:27;;;;;;;2.90;2.15;;;;;;;25.28;51.48;100851.56;5093811;28;20048;-72
2022/09/13 01:40:57;;;;;;;2.08;1.73;;;;;;;25.28;51.34;100846.16;5094653;28;20047;-71
2022/09/13 01:43:52;;;;;;;4.30;2.03;;;;;;;25.28;51.15;100848.84;5094762;28;20044;-72
2022/09/13 01:47:09;;;;;;;2.55;2.08;;;;;;;25.27;51.33;100844.47;5094186;28;20051;-72
2022/09/13 01:49:45;;;;;;;2.78;2.30;;;;;;;25.26;50.94;100842.78;5052666;28;20072;-72
2022/09/13 01:52:28;;;;;;;2.55;2.22;;;;;;;25.26;51.16;100843.63;5051549;28;20060;-71
2022/09/13 01:54:58;;;;;;;3.40;2.30;;;;;;;25.26;51.22;100846.34;5068918;28;20048;-72
2022/09/13 01:57:42;;;;;;;3.45;2.40;;;;;;;25.28;51.37;100843.44;5072475;28;20059;-74
2022/09/13 02:00:15;;;;;;;4.63;2.55;;;;;;;25.27;51.34;100841.75;5072153;28;20099;-72
2022/09/13 02:02:50;;;;;;;3.83;2.17;;;;;;;25.27;51.36;100844.47;5072141;28;20444;-71
2022/09/13 02:05:44;;;;;;;4.15;2.17;;;;;;;25.27;51.24;100858.00;5055078;28;20068;-72
2022/09/13 02:08:38;;;;;;;2.70;1.95;;;;;;;25.27;51.29;100850.72;5072052;28;20531;-71
2022/09/13 02:11:16;;;;;;;4.28;2.40;;;;;;;25.25;50.75;100843.81;5071672;28;20055;-72
2022/09/13 02:14:15;;;;;;;4.82;2.58;;;;;;;25.22;50.46;100849.56;5072448;28;20515;-71
2022/09/13 02:16:54;;;;;;;5.20;2.97;;;;;;;25.19;50.58;100847.19;5067449;28;20071;-71
2022/09/13 02:19:28;;;;;;;3.85;2.65;;;;;;;25.17;50.32;100851.94;5055125;28;20056;-71
2022/09/13 02:21:58;;;;;;;3.13;2.70;;;;;;;25.13;50.38;100844.13;5072198;28;20067;-71
2022/09/13 02:24:36;;;;;;;4.53;2.50;;;;;;;25.11;50.41;100845.31;5071867;28;20064;-72
2022/09/13 02:27:08;;;;;;;3.33;2.50;;;;;;;25.11;50.58;100853.44;5073694;28;20052;-72
2022/09/13 02:29:39;;;;;;;4.65;2.45;;;;;;;25.09;50.47;100848.22;5093594;28;20048;-72
2022/09/13 02:32:16;;;;;;;4.88;2.75;;;;;;;25.07;50.35;100858.31;5094351;28;20048;-70
2022/09/13 02:35:09;;;;;;;5.10;2.50;;;;;;;25.06;50.18;100850.38;5093731;28;20043;-70
2022/09/13 02:37:40;;;;;;;5.25;2.35;;;;;;;25.04;50.27;100855.97;5093908;28;20051;-70
2022/09/13 02:40:16;;;;;;;2.90;2.55;;;;;;;25.05;50.29;100846.81;5092544;28;20062;-72
2022/09/13 02:42:51;;;;;;;3.03;2.70;;;;;;;25.03;50.40;100846.13;5092661;28;20059;-72
2022/09/13 02:45:22;;;;;;;3.17;2.22;;;;;;;25.04;50.41;100842.44;5094199;28;20056;-72
2022/09/13 02:47:58;;;;;;;4.53;2.63;;;;;;;25.03;50.37;100835.28;5093472;28;20044;-72
2022/09/13 02:50:35;;;;;;;3.85;2.65;;;;;;;25.02;50.33;100836.31;5093502;28;20048;-72
2022/09/13 02:53:24;;;;;;;4.65;2.53;;;;;;;25.02;50.54;100844.44;5088336;28;20043;-72
2022/09/13 02:56:22;;;;;;;3.63;2.55;;;;;;;25.01;50.34;100841.91;5092205;28;20048;-72
2022/09/13 02:58:57;;;;;;;3.20;2.55;;;;;;;25.00;50.35;100846.50;5093877;28;20403;-72
2022/09/13 03:01:25;;;;;;;4.63;2.30;;;;;;;25.00;50.63;100843.78;5093384;28;20048;-72
2022/09/13 03:03:53;;;;;;;3.17;2.45;;;;;;;24.99;50.53;100836.66;5093243;28;20040;-71
2022/09/13 03:06:28;;;;;;;5.57;2.50;;;;;;;25.00;50.66;100848.34;5093624;28;20058;-71
2022/09/13 03:09:01;;;;;;;3.40;2.30;;;;;;;25.00;50.23;100842.94;5093181;28;20522;-72
2022/09/13 03:11:34;;;;;;;;;;;;;;;24.99;50.36;100847.47;5093658;28;20044;-72
2022/09/13 03:14:20;;;;;;;;;;;;;;;24.98;50.56;100845.78;5094163;28;19920;-72
2022/09/13 03:17:10;;;;;;;4.70;2.83;;;;;;;24.97;50.25;100854.94;5093143;28;19931;-72
2022/09/13 03:19:46;;;;;;;3.92;1.92;;;;;;;24.97;50.60;100852.22;5093165;28;20051;-71
2022/09/13 03:22:39;;;;;;;5.28;2.67;;;;;;;24.97;50.56;100840.56;5093033;28;20051;-71
2022/09/13 03:25:36;;;;;;;;;;;;;;;24.95;50.43;100848.84;5093344;28;20048;-72
2022/09/13 03:28:21;;;;;;;3.85;2.60;;;;;;;24.95;50.24;100853.41;5091451;28;19974;-72
2022/09/13 03:30:55;;;;;;;3.13;2.30;;;;;;;24.92;50.23;100849.19;5091496;28;20534;-71
2022/09/13 03:33:54;;;;;;;5.50;2.67;;;;;;;24.92;50.24;100849.19;5090845;28;20048;-72
2022/09/13 03:36:36;;;;;;;4.57;2.55;;;;;;;24.92;50.31;100846.47;5050461;28;20516;-71
2022/09/13 03:39:41;;;;;;;4.45;2.78;;;;;;;24.94;50.40;100846.31;5050960;28;20057;-71
2022/09/13 03:42:39;;;;;;;2.58;2.30;;;;;;;24.93;50.47;100845.47;5050956;28;20048;-72
2022/09/13 03:45:10;;;;;;;4.63;2.67;;;;;;;24.92;50.38;100832.94;5045523;28;20072;-72
2022/09/13 03:47:42;;;;;;;3.95;2.45;;;;;;;24.92;50.33;100833.78;5050656;28;20559;-72
2022/09/13 03:50:17;;;;;;;6.57;2.70;;;;;;;24.92;50.25;100832.94;5050358;28;20049;-71
2022/09/13 03:52:47;;;;;;;3.00;2.08;;;;;;;24.92;50.46;100830.22;5050631;28;20145;-71
2022/09/13 03:55:19;;;;;;;3.40;2.53;;;;;;;24.93;50.38;100829.22;5035088;28;20041;-72
2022/09/13 03:57:46;;;;;;;10.27;3.03;;;;;;;24.92;50.23;100836.50;5030901;28;20394;-74
2022/09/13 04:00:14;;;;;;;4.32;2.47;;;;;;;24.92;50.07;100832.94;5030590;28;20473;-74
2022/09/13 04:02:41;;;;;;;3.63;2.70;;;;;;;24.91;49.97;100837.50;5030612;28;20046;-71
2022/09/13 04:05:08;;;;;;;3.20;2.50;;;;;;;24.91;50.01;100842.94;5000074;28;20053;-71
2022/09/13 04:07:36;;;;;;;4.47;2.45;;;;;;;24.90;49.79;100843.94;5011627;28;20049;-71
2022/09/13 04:10:03;;;;;;;5.55;3.08;;;;;;;24.90;49.75;100845.78;5014350;28;20494;-71
2022/09/13 04:12:31;;;;;;;4.22;2.80;;;;;;;24.89;49.94;100844.09;5036563;28;20504;-72
2022/09/13 04:14:58;;;;;;;4.70;2.85;;;;;;;24.88;49.72;100842.41;5076412;28;20044;-72
2022/09/13 04:17:25;;;;;;;3.90;2.80;;;;;;;24.88;50.01;100845.13;5076070;28;20427;-72
2022/09/13 04:19:52;;;;;;;5.00;2.78;;;;;;;24.86;49.70;100841.72;5075837;28;20419;-73
2022/09/13 04:22:20;;;;;;;5.70;2.78;;;;;;;24.85;49.83;100840.88;5076698;28;20036;-73
2022/09/13 04:24:47;;;;;;;5.90;2.85;;;;;;;24.85;49.87;100845.47;5058278;28;20093;-72
2022/09/13 04:27:14;;;;;;;4.22;2.85;;;;;;;24.86;49.84;100839.00;5075993;28;20044;-73
2022/09/13 04:29:41;;;;;;;4.05;2.92;;;;;;;24.85;49.97;100838.19;5094966;28;20048;-73
2022/09/13 04:32:09;;;;;;;3.55;2.42;;;;;;;24.84;50.24;100843.78;5095665;28;20044;-74
2022/09/13 04:34:37;;;;;;;3.20;2.63;;;;;;;24.85;50.05;100848.16;5096261;28;20044;-74
2022/09/13 04:37:04;;;;;;;4.72;2.88;;;;;;;24.86;49.90;100868.81;5095811;28;20044;-74
2022/09/13 04:39:31;;;;;;;4.45;3.22;;;;;;;24.83;49.51;100861.88;5096383;28;20048;-74
2022/09/13 04:41:58;;;;;;;5.22;3.10;;;;;;;24.82;49.72;100859.31;5096004;28;20048;-74
2022/09/13 04:44:26;;;;;;;5.07;3.25;;;;;;;24.81;49.78;100853.06;5095992;28;20040;-73
2022/09/13 04:46:54;;;;;;;4.45;2.90;;;;;;;24.80;49.82;100851.38;5095425;28;20055;-73
2022/09/13 04:49:22;;;;;;;4.88;2.92;;;;;;;24.80;49.74;100854.09;5095756;28;20392;-74
2022/09/13 04:51:49;;;;;;;4.35;2.70;;;;;;;24.80;49.99;100853.25;5095528;28;20056;-73
2022/09/13 04:54:17;;;;;;;4.65;2.78;;;;;;;24.79;49.79;100852.38;5095892;28;20526;-73
2022/09/13 04:56:44;;;;;;;4.38;2.60;;;;;;;24.80;50.26;100851.38;5075782;28;20040;-73
2022/09/13 04:59:12;;;;;;;5.15;2.65;;;;;;;24.80;50.00;100848.66;5075219;28;20044;-73
2022/09/13 05:01:40;;;;;;;5.30;3.10;;;;;;;24.80;49.98;100856.78;5075732;28;20049;-73
2022/09/13 05:04:08;;;;;;;3.22;2.50;;;;;;;24.80;49.69;100856.78;5087060;28;20051;-73
2022/09/13 05:06:36;;;;;;;6.60;3.17;;;;;;;24.80;49.55;100855.94;5095487;28;20097;-73
2022/09/13 05:09:04;;;;;;;4.38;3.13;;;;;;;24.78;49.51;100850.69;5095810;28;20035;-73
2022/09/13 05:11:32;;;;;;;3.53;2.72;;;;;;;24.79;49.61;100859.66;5095135;28;20048;-73
2022/09/13 05:14:00;;;;;;;3.17;2.40;;;;;;;24.78;49.66;100856.09;5094939;28;20044;-73
2022/09/13 05:16:30;;;;;;;5.20;2.65;;;;;;;24.79;49.98;100851.53;5095315;28;20498;-73
2022/09/13 05:18:57;;;;;;;4.93;3.03;;;;;;;24.79;49.61;100848.81;5094576;28;20051;-73
2022/09/13 05:21:26;;;;;;;3.92;2.70;;;;;;;24.79;49.79;100854.22;5094702;28;20048;-73
2022/09/13 05:23:55;;;;;;;3.97;3.03;;;;;;;24.78;49.72;100849.84;5095202;28;20044;-73
2022/09/13 05:26:24;;;;;;;6.22;2.92;;;;;;;24.77;49.72;100851.72;5094953;28;20036;-72
2022/09/13 05:28:52;;;;;;;6.10;3.25;;;;;;;24.78;49.55;100849.84;5094809;28;20044;-74
2022/09/13 05:31:23;;;;;;;4.90;2.80;;;;;;;24.78;49.73;100852.56;5094841;28;20039;-73
2022/09/13 05:33:58;;;;;;;3.85;2.80;;;;;;;24.77;49.72;100851.72;5094434;28;20052;-73
2022/09/13 05:36:26;;;;;;;4.30;2.55;;;;;;;24.78;49.80;100849.84;5093855;28;20059;-72
2022/09/13 05:38:55;;;;;;;3.25;2.55;;;;;;;24.79;49.56;100852.38;5094746;28;20044;-72
2022/09/13 05:41:43;;;;;;;4.18;2.75;;;;;;;24.78;49.59;100852.56;5094689;28;20052;-72
2022/09/13 05:44:10;;;;;;;4.10;2.85;;;;;;;24.77;49.33;100850.88;5094862;28;20040;-72
2022/09/13 05:46:41;;;;;;;3.33;3.03;;;;;;;24.76;49.51;100850.03;5094364;28;20075;-72
2022/09/13 05:49:11;;;;;;;3.72;2.88;;;;;;;24.77;49.60;100861.69;5094642;28;20047;-74
2022/09/13 05:51:39;;;;;;;6.63;3.20;;;;;;;24.78;49.52;100868.78;5094686;28;20044;-72
2022/09/13 05:54:06;;;;;;;4.97;2.63;;;;;;;24.77;49.59;100862.53;5094174;28;20040;-72
2022/09/13 05:56:33;;;;;;;7.00;3.22;;;;;;;24.78;49.76;100876.91;5085149;28;20043;-72
2022/09/13 05:59:00;;;;;;;5.47;2.97;;;;;;;24.77;49.55;100873.38;5073664;28;20037;-72
2022/09/13 06:01:28;;;;;;;3.75;2.55;;;;;;;24.78;49.60;100869.63;5073961;28;20052;-72
2022/09/13 06:03:57;;;;;;;4.90;2.78;;;;;;;24.79;49.80;100870.47;5074257;28;20499;-72
2022/09/13 06:06:25;;;;;;;3.67;2.63;;;;;;;24.80;49.75;100869.50;5074012;28;20051;-72
2022/09/13 06:08:53;;;;;;;4.63;3.00;;;;;;;24.80;49.58;100869.50;5074320;28;20051;-72
2022/09/13 06:11:21;;;;;;;3.58;2.72;;;;;;;24.81;49.76;100869.31;5074156;28;20053;-72
2022/09/13 06:13:49;;;;;;;4.90;3.10;;;;;;;24.82;49.63;100864.75;5073699;28;20052;-72
2022/09/13 06:16:17;;;;;;;5.60;2.67;;;;;;;24.84;49.88;100862.72;5073621;28;20056;-72
2022/09/13 06:18:44;;;;;;;4.28;3.10;;;;;;;24.84;49.98;100868.97;5073952;28;20048;-72
2022/09/13 06:21:17;;;;;;;3.53;2.75;;;;;;;24.86;49.74;100866.09;5074010;28;20476;-72
2022/09/13 06:23:52;;;;;;;5.47;3.00;;;;;;;24.88;49.81;100869.50;5073645;28;20036;-72
2022/09/13 06:26:22;;;;;;;6.00;3.00;;;;;;;24.90;49.92;100867.44;5074082;28;20055;-72
2022/09/13 06:28:52;;;;;;;4.38;2.70;;;;;;;24.91;50.24;100869.13;5073289;28;20420;-72
2022/09/13 06:31:21;;;;;;;3.80;2.88;;;;;;;24.92;50.52;100868.16;5073376;28;20040;-73
2022/09/13 06:33:56;;;;;;;3.72;2.35;;;;;;;24.95;50.57;100861.53;5073274;28;20049;-73
2022/09/13 06:36:23;;;;;;;6.18;2.75;;;;;;;24.97;50.41;100860.34;5073512;28;20045;-73
2022/09/13 06:38:51;;;;;;;4.10;2.63;;;;;;;24.97;50.41;100867.63;5073748;28;20040;-73
2022/09/13 06:41:22;;;;;;;4.55;2.50;;;;;;;24.98;50.30;100867.47;5073200;28;20051;-73
2022/09/13 06:43:54;;;;;;;3.55;2.40;;;;;;;24.99;50.23;100871.84;5072525;28;20396;-73
2022/09/13 06:46:21;;;;;;;6.70;2.53;;;;;;;25.01;50.27;100874.41;5073658;28;20048;-73
2022/09/13 06:48:52;;;;;;;5.50;2.70;;;;;;;25.02;50.27;100876.09;5073221;28;20277;-73
2022/09/13 06:51:22;;;;;;;9.13;3.30;;;;;;;25.01;50.13;100867.13;5073587;28;20399;-72
2022/09/13 06:53:50;;;;;;;5.60;2.78;;;;;;;25.03;50.50;100864.25;5073745;28;20055;-73
2022/09/13 06:56:26;;;;;;;4.07;2.33;;;;;;;25.05;50.67;100867.66;5073335;28;20388;-73
2022/09/13 06:58:56;;;;;;;9.88;3.05;;;;;;;25.05;50.49;100864.94;5071176;28;20405;-73
2022/09/13 07:01:25;;;;;;;4.72;2.97;;;;;;;25.06;50.84;100856.63;5072562;28;20047;-74
2022/09/13 07:03:56;;;;;;;6.18;2.88;;;;;;;25.07;50.68;100866.44;5073270;28;20047;-73
2022/09/13 07:06:29;;;;;;;7.72;2.90;;;;;;;25.07;50.56;100852.91;5090685;28;20365;-73
2022/09/13 07:08:59;;;;;;;6.75;3.15;;;;;;;25.08;50.78;100868.16;5093295;28;20051;-72
2022/09/13 07:11:30;;;;;;;7.30;2.67;;;;;;;25.10;50.65;100857.16;5093685;28;20044;-72
2022/09/13 07:13:58;;;;;;;7.47;2.63;;;;;;;25.09;50.76;100860.91;5092942;28;20048;-72
2022/09/13 07:16:30;;;;;;;5.63;2.88;;;;;;;25.10;50.51;100855.31;5093026;28;20047;-73
2022/09/13 07:19:01;;;;;;;9.20;3.35;;;;;;;25.10;50.92;100849.88;5093490;28;20491;-72
2022/09/13 07:21:28;;;;;;;5.57;2.45;;;;;;;25.11;50.68;100854.28;5093567;28;20048;-73
2022/09/13 07:23:56;;;;;;;4.85;2.95;;;;;;;25.08;50.56;100846.50;5093334;28;20037;-72
2022/09/13 07:26:26;;;;;;;7.80;3.45;;;;;;;25.08;50.04;100854.63;5092533;28;20048;-72
2022/09/13 07:28:56;;;;;;;6.30;4.40;;;;;;;25.02;49.38;100844.44;5092818;28;20555;-72
2022/09/13 07:31:30;;;;;;;9.15;4.57;;;;;;;24.93;49.63;100850.88;5093589;28;20048;-73
2022/09/13 07:34:00;;;;;;;6.78;5.15;;;;;;;24.84;49.62;100847.31;5092906;28;20052;-71
2022/09/13 07:36:29;;;;;;;8.43;5.07;;;;;;;24.77;50.00;100846.28;5091572;28;20384;-72
2022/09/13 07:38:58;;;;;;;7.70;4.72;;;;;;;24.71;50.26;100851.50;5093000;28;20051;-72
2022/09/13 07:41:27;;;;;;;7.53;4.60;;;;;;;24.70;50.56;100852.53;5092765;28;20415;-72
2022/09/13 07:43:56;;;;;;;5.25;3.58;;;;;;;24.67;50.39;100845.59;5095209;28;20396;-72
2022/09/13 07:46:25;;;;;;;5.85;4.28;;;;;;;24.63;50.35;100845.09;5096585;28;20392;-72
2022/09/13 07:48:55;;;;;;;7.43;3.42;;;;;;;24.59;50.70;100849.16;5096886;28;20061;-72
2022/09/13 07:51:25;;;;;;;6.53;3.95;;;;;;;24.56;50.65;100849.47;5096846;28;20044;-72
2022/09/13 07:53:55;;;;;;;4.53;3.40;;;;;;;24.54;50.55;100856.91;5096605;28;20040;-71
2022/09/13 07:56:27;;;;;;;8.48;3.58;;;;;;;24.50;50.74;100852.81;5096545;28;20051;-72
2022/09/13 07:58:54;;;;;;;6.32;3.92;;;;;;;24.46;50.94;100847.91;5084064;28;20491;-72
2022/09/13 08:01:26;;;;;;;5.65;3.25;;;;;;;24.46;51.03;100840.63;5075862;28;20045;-72
2022/09/13 08:03:59;;;;;;;5.15;3.53;;;;;;;24.47;51.06;100838.78;5076034;28;20044;-71
2022/09/13 08:06:28;;;;;;;6.72;3.22;;;;;;;24.48;50.94;100838.63;5076268;28;20047;-72
2022/09/13 08:08:56;;;;;;;5.70;3.10;;;;;;;24.50;51.28;100833.03;5076349;28;20053;-72
2022/09/13 08:11:28;;;;;;;6.38;3.60;;;;;;;24.51;51.24;100832.91;5075960;28;20052;-72
2022/09/13 08:13:56;;;;;;;4.22;3.78;;;;;;;24.52;50.84;100831.88;5074470;28;20052;-72
2022/09/13 08:16:25;;;;;;;6.25;3.70;;;;;;;24.52;51.14;100837.28;5076575;28;20388;-72
2022/09/13 08:18:54;;;;;;;6.55;4.18;;;;;;;24.51;51.30;100834.72;5075994;28;20048;-72
2022/09/13 08:21:24;;;;;;;4.80;3.35;;;;;;;24.50;51.08;100843.88;5075857;28;20056;-72
2022/09/13 08:23:55;;;;;;;5.28;3.20;;;;;;;24.49;51.39;100853.84;5076105;28;20044;-72
2022/09/13 08:26:23;;;;;;;6.20;3.03;;;;;;;24.50;51.46;100860.94;5075640;28;20048;-71
2022/09/13 08:28:55;;;;;;;5.70;3.38;;;;;;;24.52;51.69;100863.50;5075948;28;20056;-72
2022/09/13 08:31:22;;;;;;;6.15;3.15;;;;;;;24.53;51.30;100873.31;5076007;28;20049;-72
2022/09/13 08:33:49;;;;;;;5.93;3.45;;;;;;;24.54;51.44;100870.44;5075231;28;20049;-72
2022/09/13 08:36:18;;;;;;;3.53;2.90;;;;;;;24.57;51.35;100867.41;5075434;28;20048;-72
2022/09/13 08:38:47;;;;;;;5.60;2.75;;;;;;;24.59;51.47;100857.28;5075924;28;20044;-72
2022/09/13 08:41:26;;;;;;;4.57;2.85;;;;;;;24.63;51.59;100864.03;5075508;28;20040;-72
2022/09/13 08:44:00;;;;;;;5.85;3.17;;;;;;;24.68;51.69;100858.13;5075582;28;20045;-72
2022/09/13 08:46:45;;;;;;;6.65;3.35;;;;;;;24.69;51.23;100861.69;5075767;28;20423;-71
2022/09/13 08:49:34;;;;;;;5.65;3.28;;;;;;;24.71;51.25;100875.88;5075553;28;20045;-72
2022/09/13 08:52:23;;;;;;;5.55;3.05;;;;;;;24.72;51.14;100880.31;5074176;28;20400;-72
2022/09/13 08:54:50;;;;;;;7.00;3.63;;;;;;;24.71;50.98;100874.00;5075615;28;20040;-72
2022/09/13 08:58:02;;;;;;;5.75;3.13;;;;;;;24.72;51.16;100866.78;5075317;28;20063;-72
2022/09/13 09:00:43;;;;;;;5.75;3.45;;;;;;;24.72;51.20;100861.34;5106480;28;20063;-72
2022/09/13 09:03:25;;;;;;;7.95;3.95;;;;;;;24.72;51.27;100859.50;5093264;28;20482;-72
2022/09/13 09:05:53;;;;;;;7.90;3.45;;;;;;;24.73;51.28;100860.34;5097796;28;20048;-72
2022/09/13 09:08:23;;;;;;;11.15;3.45;;;;;;;24.73;51.24;100861.19;5113696;28;20039;-72
2022/09/13 09:10:55;;;;;;;7.03;2.92;;;;;;;24.76;51.31;100863.56;5113300;28;20055;-72
2022/09/13 09:13:29;;;;;;;7.45;3.28;;;;;;;24.79;51.51;100867.78;5113360;28;20059;-72
2022/09/13 09:16:01;;;;;;;5.13;3.33;;;;;;;24.83;51.29;100869.13;5113193;28;20487;-72
2022/09/13 09:18:37;;;;;;;5.00;2.88;;;;;;;24.83;51.29;100863.72;5113655;28;20059;-72
2022/09/13 09:21:12;;;;;;;5.38;3.28;;;;;;;24.83;50.79;100875.41;5096259;28;20058;-72
2022/09/13 09:23:50;;;;;;;5.30;3.15;;;;;;;24.84;50.59;100876.25;5113020;28;20058;-72
2022/09/13 09:26:25;;;;;;;4.47;3.15;;;;;;;24.85;50.47;100877.94;5112961;28;20047;-72
2022/09/13 09:28:58;;;;;;;5.82;2.95;;;;;;;24.85;50.37;100875.25;5113213;28;20067;-72
2022/09/13 09:31:50;;;;;;;3.55;2.92;;;;;;;24.87;50.97;100886.75;5113041;28;20055;-72
2022/09/13 09:34:21;;;;;;;5.27;3.20;;;;;;;24.87;50.32;100881.31;5096216;28;20067;-72
2022/09/13 09:36:59;;;;;;;5.78;3.00;;;;;;;24.87;49.58;100884.91;5082998;28;20409;-72
2022/09/13 09:39:32;;;;;;;5.47;3.03;;;;;;;24.86;49.71;100883.19;5074147;28;20047;-72
2022/09/13 09:42:03;;;;;;;4.40;2.50;;;;;;;24.88;49.89;100872.22;5074509;28;20056;-73
2022/09/13 09:44:32;;;;;;;4.78;2.80;;;;;;;24.89;49.81;100861.19;5074394;28;20427;-72
2022/09/13 09:47:32;;;;;;;6.68;3.40;;;;;;;24.89;50.04;100869.31;5074504;28;20067;-72
2022/09/13 09:50:17;;;;;;;7.78;3.78;;;;;;;24.92;50.49;100868.16;5074249;28;20052;-72
2022/09/13 09:52:52;;;;;;;6.35;3.75;;;;;;;24.92;50.51;100870.84;5092944;28;20364;-72
2022/09/13 09:55:45;;;;;;;4.53;2.97;;;;;;;24.93;50.62;100861.72;5094314;28;20051;-72
2022/09/13 09:58:17;;;;;;;;;;;;;;;24.94;50.41;100857.13;5094558;28;20422;-72
2022/09/13 10:01:04;;;;;;;6.97;3.13;;;;;;;24.94;50.72;100859.84;5083018;28;20267;-72
2022/09/13 10:03:38;;;;;;;5.95;3.15;;;;;;;24.96;51.71;100863.25;5091564;28;20067;-72
2022/09/13 10:06:10;;;;;;;6.38;3.38;;;;;;;24.96;52.38;100855.13;5093829;28;20036;-72
2022/09/13 10:08:40;;;;;;;5.70;2.78;;;;;;;24.96;52.40;100855.97;5093810;28;20044;-72
2022/09/13 10:11:09;;;;;;;5.78;2.83;;;;;;;24.97;52.33;100854.94;5093888;28;20040;-72
2022/09/13 10:13:37;;;;;;;4.20;2.70;;;;;;;24.97;52.13;100863.06;5093881;28;20048;-71
2022/09/13 10:16:21;;;;;;;7.13;2.85;;;;;;;24.98;54.54;100856.63;5094126;28;20507;-72
2022/09/13 10:18:49;;;;;;;3.30;2.53;;;;;;;24.97;54.61;100852.22;5093847;28;20048;-74
2022/09/13 10:21:16;;;;;;;7.70;3.10;;;;;;;24.97;54.99;100848.69;5093786;28;20050;-72
2022/09/13 10:23:45;;;;;;;4.72;2.88;;;;;;;24.96;52.18;100845.13;5093552;28;20052;-72
2022/09/13 10:26:16;;;;;;;5.00;3.17;;;;;;;24.96;51.75;100847.84;5093797;28;20050;-72
2022/09/13 10:28:56;;;;;;;4.60;2.63;;;;;;;24.97;51.59;100837.84;5080898;28;20052;-72
2022/09/13 10:31:31;;;;;;;4.40;3.17;;;;;;;24.97;51.84;100838.69;5073490;28;20056;-72
2022/09/13 10:34:05;;;;;;;3.45;2.70;;;;;;;24.99;51.68;100827.69;5073078;28;20048;-72
2022/09/13 10:36:36;;;;;;;4.30;2.58;;;;;;;25.00;51.08;100824.81;5073672;28;20404;-72
2022/09/13 10:39:21;;;;;;;5.88;2.78;;;;;;;24.99;51.88;100812.28;5073282;28;20381;-72
2022/09/13 10:41:51;;;;;;;2.75;2.40;;;;;;;25.00;52.69;100811.28;5073313;28;20502;-72
2022/09/13 10:44:30;;;;;;;3.15;2.70;;;;;;;24.99;54.07;100814.97;5073386;28;20050;-72
2022/09/13 10:47:02;;;;;;;3.28;2.80;;;;;;;24.98;52.93;100818.72;5073166;28;20396;-72
2022/09/13 10:49:44;;;;;;;6.13;2.75;;;;;;;24.99;53.47;100804.16;5072089;28;20404;-72
2022/09/13 10:52:40;;;;;;;3.88;2.25;;;;;;;24.98;52.41;100796.19;5073255;28;20059;-72
2022/09/13 10:55:20;;;;;;;5.70;2.90;;;;;;;24.98;52.08;100783.50;5073582;28;20067;-72
2022/09/13 10:57:48;;;;;;;3.65;2.80;;;;;;;24.99;52.62;100779.78;5073241;28;20049;-72
2022/09/13 11:00:30;;;;;;;3.85;2.95;;;;;;;25.00;51.32;100770.66;5072793;28;20045;-72
2022/09/13 11:02:57;;;;;;;5.22;2.85;;;;;;;25.02;50.97;100776.72;5072253;28;20047;-72
2022/09/13 11:05:58;;;;;;;4.13;2.60;;;;;;;25.04;51.53;100782.84;5073496;28;20040;-72
2022/09/13 11:08:32;;;;;;;3.83;3.03;;;;;;;25.06;54.22;100779.94;5086268;28;20399;-72
2022/09/13 11:11:08;;;;;;;4.93;2.83;;;;;;;25.04;51.67;100774.72;5092978;28;20395;-72
2022/09/13 11:13:38;;;;;;;5.43;2.33;;;;;;;25.05;53.85;100767.44;5093254;28;20048;-72
2022/09/13 11:16:19;;;;;;;4.15;2.92;;;;;;;25.05;52.57;100770.13;5093057;28;20047;-72
2022/09/13 11:19:11;;;;;;;4.00;3.35;;;;;;;25.04;55.10;100766.59;5095653;28;20044;-72
2022/09/13 11:22:18;;;;;;;3.15;2.45;;;;;;;25.05;54.14;100773.69;5096986;28;20059;-72
2022/09/13 11:25:17;;;;;;;4.15;2.95;;;;;;;25.04;52.19;100765.75;5097454;28;20040;-72
2022/09/13 11:28:13;;;;;;;3.90;2.95;;;;;;;25.05;51.74;100770.13;5097352;28;20040;-72
2022/09/13 11:30:48;;;;;;;4.70;3.10;;;;;;;25.04;54.23;100758.47;5097114;28;20392;-72
2022/09/13 11:33:27;;;;;;;6.07;2.75;;;;;;;25.04;52.58;100763.88;5097019;28;20052;-72
2022/09/13 11:36:37;;;;;;;5.07;3.30;;;;;;;25.05;51.68;100770.97;5096940;28;20079;-72
2022/09/13 11:39:27;;;;;;;6.00;2.97;;;;;;;25.07;51.91;100773.50;5097256;28;20051;-72
2022/09/13 11:42:03;;;;;;;6.47;3.65;;;;;;;25.07;53.76;100773.50;5096776;28;20044;-72
2022/09/13 11:44:39;;;;;;;3.22;2.92;;;;;;;25.07;54.10;100771.63;5095795;28;20052;-73
2022/09/13 11:47:30;;;;;;;5.78;2.92;;;;;;;25.06;53.92;100772.66;5096829;28;20044;-74
2022/09/13 11:50:09;;;;;;;5.35;3.03;;;;;;;25.07;53.37;100774.34;5096283;28;20043;-73
2022/09/13 11:53:01;;;;;;;3.78;2.75;;;;;;;25.06;53.16;100753.69;5095939;28;20398;-72
2022/09/13 11:55:38;;;;;;;5.77;3.10;;;;;;;25.06;52.39;100759.13;5097052;28;20463;-78
2022/09/13 11:58:12;;;;;;;6.10;2.80;;;;;;;25.08;52.92;100757.09;5096331;28;20283;-72
2022/09/13 12:00:45;;;;;;;5.18;3.33;;;;;;;25.09;52.33;100753.41;5096660;28;20402;-72